createdAt,value
2023-02-16T00:00:39.230Z,48.35
2023-02-16T00:03:29.511Z,53.38
2023-02-16T00:08:28.125Z,45.25
2023-02-16T00:11:15.034Z,44.15
2023-02-16T00:13:48.486Z,51.40
2023-02-16T00:16:21.047Z,51.22
2023-02-16T00:18:51.324Z,50.55
2023-02-16T00:23:50.475Z,45.47
2023-02-16T00:26:21.985Z,49.22
2023-02-16T00:28:54.124Z,46.08
2023-02-16T00:31:27.389Z,37.78
2023-02-16T00:33:57.900Z,45.17
2023-02-16T00:36:27.636Z,53.88
2023-02-16T00:38:57.185Z,51.58
2023-02-16T00:41:44.224Z,48.17
2023-02-16T00:44:18.485Z,43.70
2023-02-16T00:46:49.765Z,45.47
2023-02-16T00:49:21.228Z,38.25
2023-02-16T00:51:51.258Z,50.42
2023-02-16T00:54:20.700Z,35.15
2023-02-16T00:56:50.434Z,40.95
2023-02-16T00:59:23.603Z,48.58
2023-02-16T01:01:54.298Z,50.97
2023-02-16T01:04:26.061Z,40.63
2023-02-16T01:07:12.856Z,49.90
2023-02-16T01:09:59.658Z,42.47
2023-02-16T01:12:30.461Z,53.58
2023-02-16T01:15:00.708Z,50.75
2023-02-16T01:17:33.306Z,53.72
2023-02-16T01:20:02.851Z,51.40
2023-02-16T01:22:33.615Z,50.67
2023-02-16T01:25:02.942Z,49.42
2023-02-16T01:27:32.664Z,50.25
2023-02-16T01:32:33.308Z,47.00
2023-02-16T01:35:02.943Z,46.70
2023-02-16T01:37:31.993Z,49.80
2023-02-16T01:40:01.491Z,46.35
2023-02-16T01:42:37.849Z,45.30
2023-02-16T01:45:14.588Z,47.70
2023-02-16T01:47:49.027Z,46.63
2023-02-16T01:50:21.266Z,45.30
2023-02-16T01:52:57.476Z,51.65
2023-02-16T01:55:30.874Z,45.70
2023-02-16T01:58:06.632Z,44.28
2023-02-16T02:01:20.824Z,50.75
2023-02-16T02:04:11.365Z,49.65
2023-02-16T02:06:41.254Z,51.30
2023-02-16T02:09:15.653Z,48.83
2023-02-16T02:11:50.980Z,46.60
2023-02-16T02:14:23.903Z,45.72
2023-02-16T02:16:59.127Z,47.78
2023-02-16T02:19:33.615Z,49.33
2023-02-16T02:22:49.247Z,47.45
2023-02-16T02:25:45.423Z,51.00
2023-02-16T02:28:20.572Z,50.22
2023-02-16T02:30:55.331Z,50.70
2023-02-16T02:33:44.222Z,52.13
2023-02-16T02:36:23.556Z,30.45
2023-02-16T02:39:04.979Z,43.63
2023-02-16T02:41:57.004Z,50.67
2023-02-16T02:44:30.792Z,44.65
2023-02-16T02:47:00.469Z,46.25
2023-02-16T02:49:29.995Z,49.92
2023-02-16T02:51:59.851Z,48.30
2023-02-16T02:54:52.550Z,48.72
2023-02-16T02:57:45.050Z,47.65
2023-02-16T03:00:38.706Z,47.95
2023-02-16T03:03:12.774Z,48.58
2023-02-16T03:05:46.538Z,46.13
2023-02-16T03:08:21.557Z,50.50
2023-02-16T03:11:13.204Z,45.80
2023-02-16T03:13:46.312Z,48.65
2023-02-16T03:16:23.418Z,50.50
2023-02-16T03:19:10.795Z,47.60
2023-02-16T03:21:58.815Z,41.42
2023-02-16T03:24:48.011Z,46.38
2023-02-16T03:27:39.838Z,41.78
2023-02-16T03:31:18.969Z,45.78
2023-02-16T03:33:54.833Z,37.05
2023-02-16T03:36:25.256Z,42.88
2023-02-16T03:38:55.633Z,47.97
2023-02-16T03:41:25.201Z,44.58
2023-02-16T03:43:54.740Z,44.08
2023-02-16T03:46:23.818Z,43.33
2023-02-16T03:48:54.844Z,43.92
2023-02-16T03:51:23.999Z,41.72
2023-02-16T03:53:54.612Z,45.45
2023-02-16T03:56:23.804Z,44.83
2023-02-16T03:58:53.162Z,41.60
2023-02-16T04:01:22.288Z,48.90
2023-02-16T04:03:53.166Z,45.63
2023-02-16T04:06:22.336Z,47.95
2023-02-16T04:08:52.018Z,46.97
2023-02-16T04:11:38.241Z,50.97
2023-02-16T04:14:07.714Z,45.25
2023-02-16T04:16:36.763Z,42.33
2023-02-16T04:19:08.049Z,46.50
2023-02-16T04:21:37.102Z,47.08
2023-02-16T04:24:07.623Z,44.75
2023-02-16T04:26:37.035Z,45.80
2023-02-16T04:29:06.459Z,40.78
2023-02-16T04:31:35.620Z,47.83
2023-02-16T04:34:06.656Z,42.47
2023-02-16T04:36:35.805Z,42.67
2023-02-16T04:39:05.901Z,45.13
2023-02-16T04:44:04.326Z,45.47
2023-02-16T04:46:33.579Z,44.05
2023-02-16T04:49:03.625Z,42.42
2023-02-16T04:51:34.230Z,46.63
2023-02-16T04:54:03.694Z,41.63
2023-02-16T04:56:32.784Z,46.20
2023-02-16T04:59:02.230Z,44.42
2023-02-16T05:01:31.543Z,41.35
2023-02-16T05:04:00.916Z,37.22
2023-02-16T05:06:30.130Z,40.50
2023-02-16T05:09:01.101Z,36.53
2023-02-16T05:11:47.695Z,41.60
2023-02-16T05:14:38.914Z,36.20
2023-02-16T05:17:08.527Z,36.80
2023-02-16T05:19:38.372Z,30.23
2023-02-16T05:22:07.761Z,32.08
2023-02-16T05:24:39.049Z,33.97
2023-02-16T05:27:10.783Z,29.38
2023-02-16T05:29:40.400Z,36.30
2023-02-16T05:32:09.552Z,24.85
2023-02-16T05:34:39.098Z,20.73
2023-02-16T05:37:08.804Z,30.88
2023-02-16T05:39:39.604Z,31.35
2023-02-16T05:42:09.559Z,28.00
2023-02-16T05:44:39.148Z,29.48
2023-02-16T05:47:08.646Z,31.70
2023-02-16T05:52:07.336Z,33.63
2023-02-16T05:54:38.186Z,26.00
2023-02-16T05:57:07.395Z,38.25
2023-02-16T05:59:36.738Z,35.00
2023-02-16T06:02:05.857Z,32.53
2023-02-16T06:04:35.360Z,29.48
2023-02-16T06:07:04.541Z,39.05
2023-02-16T06:09:33.986Z,32.70
2023-02-16T06:12:04.725Z,37.22
2023-02-16T06:14:34.238Z,39.08
2023-02-16T06:17:03.754Z,36.28
2023-02-16T06:22:02.181Z,37.50
2023-02-16T06:24:31.616Z,39.63
2023-02-16T06:27:01.312Z,37.00
2023-02-16T06:32:01.546Z,36.97
2023-02-16T06:34:30.932Z,37.00
2023-02-16T06:37:00.166Z,38.50
2023-02-16T06:39:29.819Z,41.55
2023-02-16T06:41:59.196Z,30.98
2023-02-16T06:46:59.043Z,36.47
2023-02-16T06:49:28.517Z,42.63
2023-02-16T06:51:57.819Z,37.05
2023-02-16T06:54:27.284Z,40.58
2023-02-16T06:56:56.384Z,35.55
2023-02-16T06:59:25.873Z,33.33
2023-02-16T07:01:54.945Z,36.83
2023-02-16T07:04:25.684Z,35.15
2023-02-16T07:06:55.162Z,37.15
2023-02-16T07:09:24.799Z,34.72
2023-02-16T07:11:54.466Z,32.30
2023-02-16T07:14:24.048Z,37.15
2023-02-16T07:16:53.138Z,33.38
2023-02-16T07:19:24.066Z,34.72
2023-02-16T07:21:55.277Z,33.58
2023-02-16T07:24:25.125Z,34.80
2023-02-16T07:26:54.425Z,33.28
2023-02-16T07:29:23.884Z,29.73
2023-02-16T07:31:53.639Z,32.08
2023-02-16T07:34:24.534Z,34.08
2023-02-16T07:36:53.923Z,28.30
2023-02-16T07:39:23.517Z,32.20
2023-02-16T07:41:52.584Z,29.92
2023-02-16T07:44:21.964Z,30.83
2023-02-16T07:46:51.176Z,31.30
2023-02-16T07:49:20.812Z,30.15
2023-02-16T07:51:51.243Z,29.23
2023-02-16T07:54:21.464Z,29.83
2023-02-16T07:56:50.682Z,26.85
2023-02-16T07:59:19.990Z,30.58
2023-02-16T08:01:49.298Z,27.60
2023-02-16T08:04:18.670Z,29.60
2023-02-16T08:06:48.844Z,29.25
2023-02-16T08:09:19.729Z,29.83
2023-02-16T08:11:49.266Z,32.63
2023-02-16T08:14:18.600Z,28.35
2023-02-16T08:16:49.536Z,26.08
2023-02-16T08:19:20.812Z,32.35
2023-02-16T08:21:49.857Z,29.33
2023-02-16T08:24:20.656Z,29.92
2023-02-16T08:26:50.767Z,31.48
2023-02-16T08:29:21.893Z,20.08
2023-02-16T08:31:51.748Z,30.38
2023-02-16T08:34:22.982Z,22.75
2023-02-16T08:36:56.086Z,28.13
2023-02-16T08:39:29.081Z,24.85
2023-02-16T08:41:58.345Z,26.58
2023-02-16T08:44:29.818Z,25.85
2023-02-16T08:47:01.583Z,30.13
2023-02-16T08:49:31.543Z,32.17
2023-02-16T08:52:01.779Z,27.88
2023-02-16T08:54:33.586Z,32.95
2023-02-16T08:57:03.309Z,30.90
2023-02-16T08:59:34.808Z,29.08
2023-02-16T09:02:04.533Z,29.30
2023-02-16T09:04:33.893Z,30.25
2023-02-16T09:07:03.079Z,30.25
2023-02-16T09:09:34.452Z,32.20
2023-02-16T09:12:03.833Z,30.08
2023-02-16T09:14:33.135Z,28.15
2023-02-16T09:17:03.360Z,31.38
2023-02-16T09:19:32.975Z,27.65
2023-02-16T09:22:03.502Z,28.45
2023-02-16T09:24:34.402Z,30.10
2023-02-16T09:27:04.443Z,28.02
2023-02-16T09:29:35.287Z,29.23
2023-02-16T09:32:04.525Z,29.48
2023-02-16T09:34:34.156Z,28.98
2023-02-16T09:37:03.508Z,28.75
2023-02-16T09:39:34.423Z,28.45
2023-02-16T09:42:19.897Z,29.90
2023-02-16T09:44:56.576Z,28.35
2023-02-16T09:47:31.184Z,28.40
2023-02-16T09:50:05.035Z,24.42
2023-02-16T09:52:40.414Z,29.42
2023-02-16T09:55:16.212Z,28.98
2023-02-16T09:58:00.045Z,29.63
2023-02-16T10:00:51.304Z,32.55
2023-02-16T10:03:49.293Z,27.77
2023-02-16T10:06:37.335Z,26.52
2023-02-16T10:09:11.546Z,28.15
2023-02-16T10:11:48.949Z,27.20
2023-02-16T10:14:31.753Z,29.17
2023-02-16T10:17:09.345Z,26.92
2023-02-16T10:19:44.576Z,25.25
2023-02-16T10:22:17.840Z,28.65
2023-02-16T10:24:59.772Z,29.55
2023-02-16T10:27:38.206Z,27.58
2023-02-16T10:30:15.334Z,24.45
2023-02-16T10:32:56.454Z,25.33
2023-02-16T10:35:36.999Z,29.42
2023-02-16T10:38:14.386Z,25.25
2023-02-16T10:40:53.790Z,26.08
2023-02-16T10:45:59.644Z,29.98
2023-02-16T10:48:29.980Z,27.25
2023-02-16T10:51:03.474Z,23.77
2023-02-16T10:53:40.869Z,26.88
2023-02-16T10:56:41.826Z,29.00
2023-02-16T10:59:18.982Z,27.27
2023-02-16T11:01:50.845Z,26.90
2023-02-16T11:04:40.685Z,24.63
2023-02-16T11:09:42.883Z,18.08
2023-02-16T11:12:25.315Z,22.65
2023-02-16T11:14:58.740Z,23.77
2023-02-16T11:17:28.672Z,18.02
2023-02-16T11:20:02.142Z,24.05
2023-02-16T11:22:35.584Z,26.20
2023-02-16T11:25:26.934Z,23.67
2023-02-16T11:27:58.885Z,22.70
2023-02-16T11:30:33.562Z,24.17
2023-02-16T11:33:20.084Z,23.63
2023-02-16T11:35:49.878Z,23.42
2023-02-16T11:38:30.167Z,26.77
2023-02-16T11:41:02.315Z,24.40
2023-02-16T11:43:38.926Z,26.52
2023-02-16T11:46:17.643Z,26.65
2023-02-16T11:48:47.695Z,23.67
2023-02-16T11:51:30.441Z,26.52
2023-02-16T11:54:04.533Z,24.88
2023-02-16T11:56:36.583Z,25.70
2023-02-16T11:59:09.149Z,23.77
2023-02-16T12:02:01.180Z,30.05
2023-02-16T12:04:48.020Z,26.73
2023-02-16T12:07:27.703Z,25.50
2023-02-16T12:10:08.743Z,25.48
2023-02-16T12:12:47.677Z,23.27
2023-02-16T12:15:22.380Z,27.80
2023-02-16T12:18:09.155Z,28.20
2023-02-16T12:20:50.472Z,25.60
2023-02-16T12:23:40.099Z,26.77
2023-02-16T12:26:31.767Z,27.80
2023-02-16T12:29:16.165Z,37.50
2023-02-16T12:32:13.841Z,27.13
2023-02-16T12:34:56.946Z,30.27
2023-02-16T12:37:35.369Z,31.58
2023-02-16T12:40:17.022Z,30.45
2023-02-16T12:43:04.124Z,26.08
2023-02-16T12:45:37.488Z,30.67
2023-02-16T12:48:21.138Z,26.05
2023-02-16T12:50:54.319Z,29.58
2023-02-16T12:53:29.370Z,29.08
2023-02-16T12:56:03.544Z,33.00
2023-02-16T12:58:37.347Z,36.92
2023-02-16T13:01:14.647Z,32.78
2023-02-16T13:03:53.192Z,31.85
2023-02-16T13:06:30.692Z,40.87
2023-02-16T13:09:11.493Z,33.83
2023-02-16T13:11:47.524Z,27.25
2023-02-16T13:14:22.010Z,36.72
2023-02-16T13:16:56.578Z,41.78
2023-02-16T13:19:25.965Z,28.85
2023-02-16T13:22:20.470Z,37.20
2023-02-16T13:25:02.143Z,32.88
2023-02-16T13:27:47.790Z,42.33
2023-02-16T13:30:44.362Z,42.88
2023-02-16T13:33:37.092Z,37.65
2023-02-16T13:36:37.426Z,39.05
2023-02-16T13:39:56.245Z,37.35
2023-02-16T13:42:59.106Z,36.22
2023-02-16T13:45:32.437Z,29.67
2023-02-16T13:48:02.814Z,39.17
2023-02-16T13:50:35.620Z,32.78
2023-02-16T13:53:18.711Z,36.55
2023-02-16T13:55:50.779Z,37.15
2023-02-16T13:58:33.969Z,42.53
2023-02-16T14:01:39.155Z,38.70
2023-02-16T14:04:14.815Z,41.58
2023-02-16T14:06:44.591Z,40.25
2023-02-16T14:09:47.699Z,38.75
2023-02-16T14:12:21.273Z,37.05
2023-02-16T14:15:01.786Z,40.67
2023-02-16T14:17:35.600Z,42.65
2023-02-16T14:20:09.050Z,40.78
2023-02-16T14:22:50.231Z,38.22
2023-02-16T14:25:40.941Z,44.93
2023-02-16T14:28:49.794Z,43.85
2023-02-16T14:31:25.296Z,40.85
2023-02-16T14:34:04.182Z,36.95
2023-02-16T14:36:34.318Z,38.20
2023-02-16T14:39:03.871Z,40.53
2023-02-16T14:41:37.781Z,43.15
2023-02-16T14:44:39.771Z,43.13
2023-02-16T14:47:24.416Z,42.42
2023-02-16T14:50:18.364Z,41.40
2023-02-16T14:53:33.093Z,39.42
2023-02-16T14:56:38.398Z,39.70
2023-02-16T14:59:21.959Z,40.92
2023-02-16T15:01:51.680Z,38.30
2023-02-16T15:04:31.457Z,46.95
2023-02-16T15:07:04.668Z,41.75
2023-02-16T15:09:37.026Z,38.80
2023-02-16T15:12:23.959Z,38.28
2023-02-16T15:14:59.032Z,37.92
2023-02-16T15:17:35.662Z,39.22
2023-02-16T15:20:11.762Z,37.40
2023-02-16T15:22:51.246Z,39.15
2023-02-16T15:25:28.103Z,39.60
2023-02-16T15:28:00.641Z,36.30
2023-02-16T15:30:32.186Z,38.60
2023-02-16T15:33:04.055Z,38.67
2023-02-16T15:35:38.058Z,38.72
2023-02-16T15:38:22.090Z,41.97
2023-02-16T15:40:55.007Z,41.55
2023-02-16T15:43:32.045Z,43.03
2023-02-16T15:46:03.301Z,39.80
2023-02-16T15:48:34.475Z,40.50
2023-02-16T15:51:12.563Z,40.05
2023-02-16T15:53:48.190Z,41.80
2023-02-16T15:56:35.950Z,43.78
2023-02-16T15:59:17.203Z,43.50
2023-02-16T16:01:47.528Z,45.20
2023-02-16T16:04:20.962Z,42.53
2023-02-16T16:06:52.962Z,42.45
2023-02-16T16:09:26.225Z,41.85
2023-02-16T16:11:58.624Z,42.88
2023-02-16T16:14:29.163Z,47.33
2023-02-16T16:16:59.093Z,43.67
2023-02-16T16:19:34.916Z,45.45
2023-02-16T16:22:16.965Z,42.30
2023-02-16T16:24:48.587Z,45.05
2023-02-16T16:27:28.766Z,47.92
2023-02-16T16:30:12.493Z,46.00
2023-02-16T16:32:44.588Z,42.40
2023-02-16T16:35:24.122Z,46.75
2023-02-16T16:37:55.761Z,46.13
2023-02-16T16:40:31.334Z,46.72
2023-02-16T16:43:17.969Z,47.40
2023-02-16T16:45:50.812Z,48.30
2023-02-16T16:48:23.619Z,52.28
2023-02-16T16:51:11.399Z,48.83
2023-02-16T16:53:54.416Z,46.30
2023-02-16T16:56:25.368Z,46.25
2023-02-16T16:58:58.326Z,44.80
2023-02-16T17:01:29.597Z,48.53
2023-02-16T17:03:59.797Z,48.97
2023-02-16T17:06:30.492Z,48.25
2023-02-16T17:09:02.530Z,50.33
2023-02-16T17:11:35.135Z,48.13
2023-02-16T17:14:09.864Z,52.58
2023-02-16T17:16:42.281Z,46.47
2023-02-16T17:19:13.994Z,44.28
2023-02-16T17:21:46.348Z,45.42
2023-02-16T17:26:50.240Z,42.20
2023-02-16T17:29:19.657Z,46.70
2023-02-16T17:31:50.621Z,47.50
2023-02-16T17:34:23.264Z,45.90
2023-02-16T17:36:53.195Z,47.47
2023-02-16T17:39:23.798Z,46.20
2023-02-16T17:41:53.376Z,46.05
2023-02-16T17:44:22.639Z,48.05
2023-02-16T17:46:52.370Z,46.17
2023-02-16T17:49:23.857Z,49.60
2023-02-16T17:51:56.565Z,51.38
2023-02-16T17:54:27.274Z,49.63
2023-02-16T17:56:56.939Z,46.35
2023-02-16T17:59:26.193Z,45.53
2023-02-16T18:01:56.237Z,46.83
2023-02-16T18:04:25.627Z,46.55
2023-02-16T18:06:56.298Z,49.00
2023-02-16T18:09:26.871Z,47.40
2023-02-16T18:11:58.510Z,49.10
2023-02-16T18:14:27.732Z,46.65
2023-02-16T18:17:01.893Z,50.08
2023-02-16T18:19:33.930Z,50.67
2023-02-16T18:22:05.719Z,50.92
2023-02-16T18:24:36.444Z,51.60
2023-02-16T18:27:09.062Z,49.75
2023-02-16T18:29:38.387Z,56.05
2023-02-16T18:32:08.038Z,48.63
2023-02-16T18:34:38.081Z,47.55
2023-02-16T18:37:07.489Z,49.63
2023-02-16T18:39:38.289Z,48.35
2023-02-16T18:42:08.096Z,48.80
2023-02-16T18:44:37.461Z,51.25
2023-02-16T18:47:07.578Z,52.03
2023-02-16T18:49:37.189Z,47.20
2023-02-16T18:54:39.955Z,47.88
2023-02-16T18:57:09.838Z,52.97
2023-02-16T18:59:39.329Z,49.35
2023-02-16T19:02:09.195Z,48.42
2023-02-16T19:04:41.599Z,52.03
2023-02-16T19:07:11.311Z,49.60
2023-02-16T19:09:42.616Z,47.17
2023-02-16T19:12:13.790Z,52.85
2023-02-16T19:14:43.413Z,51.10
2023-02-16T19:17:12.935Z,54.65
2023-02-16T19:19:42.248Z,51.63
2023-02-16T19:22:12.372Z,54.03
2023-02-16T19:24:44.401Z,51.53
2023-02-16T19:27:17.011Z,51.25
2023-02-16T19:29:47.352Z,49.83
2023-02-16T19:32:19.382Z,53.72
2023-02-16T19:34:48.989Z,52.20
2023-02-16T19:37:18.611Z,48.33
2023-02-16T19:39:49.288Z,54.70
2023-02-16T19:42:19.091Z,55.72
2023-02-16T19:44:49.801Z,50.80
2023-02-16T19:47:19.318Z,59.95
2023-02-16T19:49:51.330Z,55.40
2023-02-16T19:52:20.830Z,56.25
2023-02-16T19:54:51.744Z,59.90
2023-02-16T19:57:21.570Z,55.67
2023-02-16T19:59:51.039Z,59.20
2023-02-16T20:02:20.496Z,53.58
2023-02-16T20:04:50.029Z,52.90
2023-02-16T20:07:19.461Z,57.70
2023-02-16T20:09:49.990Z,54.65
2023-02-16T20:12:23.610Z,59.70
2023-02-16T20:14:54.854Z,48.78
2023-02-16T20:17:26.429Z,57.55
2023-02-16T20:19:56.419Z,55.00
2023-02-16T20:22:26.268Z,49.58
2023-02-16T20:24:56.841Z,60.08
2023-02-16T20:27:28.074Z,58.08
2023-02-16T20:29:59.811Z,53.33
2023-02-16T20:32:30.535Z,59.58
2023-02-16T20:35:05.637Z,57.80
2023-02-16T20:37:41.982Z,49.67
2023-02-16T20:40:13.985Z,53.88
2023-02-16T20:42:44.771Z,57.58
2023-02-16T20:45:14.038Z,56.30
2023-02-16T20:47:43.513Z,54.05
2023-02-16T20:50:13.175Z,52.95
2023-02-16T20:52:44.924Z,53.22
2023-02-16T20:55:15.436Z,50.50
2023-02-16T20:57:47.128Z,54.28
2023-02-16T21:00:21.719Z,47.92
2023-02-16T21:02:54.641Z,55.22
2023-02-16T21:05:24.401Z,49.78
2023-02-16T21:07:53.751Z,51.58
2023-02-16T21:10:24.173Z,47.15
2023-02-16T21:12:54.016Z,41.58
2023-02-16T21:15:23.467Z,48.75
2023-02-16T21:17:54.962Z,49.45
2023-02-16T21:20:26.356Z,39.35
2023-02-16T21:22:55.840Z,49.53
2023-02-16T21:25:27.697Z,46.85
2023-02-16T21:27:57.129Z,34.25
2023-02-16T21:30:26.479Z,53.67
2023-02-16T21:32:56.045Z,55.15
2023-02-16T21:35:25.577Z,44.33
2023-02-16T21:40:43.354Z,47.92
2023-02-16T21:43:13.510Z,53.35
2023-02-16T21:45:42.675Z,44.83
2023-02-16T21:48:31.644Z,47.00
2023-02-16T21:51:03.815Z,49.33
2023-02-16T21:53:33.564Z,45.78
2023-02-16T21:56:19.507Z,57.28
2023-02-16T21:58:49.418Z,42.95
2023-02-16T22:03:56.031Z,48.05
2023-02-16T22:06:27.692Z,48.42
2023-02-16T22:08:57.569Z,46.35
2023-02-16T22:11:28.184Z,48.92
2023-02-16T22:13:59.166Z,52.45
2023-02-16T22:16:30.677Z,48.38
2023-02-16T22:19:04.073Z,39.40
2023-02-16T22:21:35.680Z,43.45
2023-02-16T22:24:06.340Z,45.05
2023-02-16T22:26:37.558Z,39.90
2023-02-16T22:29:09.073Z,47.40
2023-02-16T22:31:38.729Z,44.85
2023-02-16T22:34:09.904Z,46.90
2023-02-16T22:36:40.124Z,48.90
2023-02-16T22:39:12.509Z,50.72
2023-02-16T22:41:43.453Z,50.13
2023-02-16T22:44:15.291Z,44.53
2023-02-16T22:46:45.229Z,48.05
2023-02-16T22:49:14.653Z,48.42
2023-02-16T22:51:43.863Z,45.85
2023-02-16T22:54:15.267Z,40.53
2023-02-16T22:56:45.814Z,46.58
2023-02-16T22:59:15.486Z,44.17
2023-02-16T23:01:45.088Z,52.75
2023-02-16T23:04:16.595Z,45.22
2023-02-16T23:06:46.763Z,46.80
2023-02-16T23:09:18.656Z,43.10
2023-02-16T23:11:50.372Z,44.47
2023-02-16T23:14:20.754Z,32.13
2023-02-16T23:16:51.780Z,30.85
2023-02-16T23:19:24.424Z,45.90
2023-02-16T23:21:54.750Z,49.60
2023-02-16T23:24:25.326Z,32.90
2023-02-16T23:26:56.528Z,46.63
2023-02-16T23:29:26.755Z,38.22
2023-02-16T23:31:55.955Z,48.25
2023-02-16T23:34:25.372Z,47.05
2023-02-16T23:36:54.991Z,48.33
2023-02-16T23:41:55.027Z,36.50
2023-02-16T23:44:24.724Z,49.05
2023-02-16T23:46:53.801Z,36.38
2023-02-16T23:49:23.305Z,46.20
2023-02-16T23:51:52.436Z,41.63
2023-02-16T23:54:21.809Z,39.30
2023-02-16T23:56:52.759Z,31.17
2023-02-16T23:59:23.731Z,29.52
